OOCL Hamburg — VRZK9 — position and weather

sailwx.info

Track history (hours):
 
Tides and Currents Weather Stations Pressure Air Temp Water Temp Dewpoint Dewpoint Depression Visibility Wind Speed Wind Dir Waves Ship Positions

OOCL Hamburg

Last reported at 2016-Jun-25 12:00 UTC. Time now 2016-Jun-26 02:53 UTC.
Position N 40°00' W 055°36'.

Length 323 m; beam 42.8 m; draft 14.5 m.

Type: Cargo ship. MMSI: 477702000.

Wind from 190 at 20 knots

Waves 2.0 meters (7 feet), 8 second period

Barometer 1026.0 mb
Air temperature 22.5 ° C
Visibility: greater than 5.4 NM
Dewpoint 21.8 ° C
Water temperature 23.0 ° C

Date/timePositionNaut miles runAvg speedWind from/ knotsBaromVisibWave heightAir tempDewpointWater temp
2016-Jun-25 12:00N 40°00' W 055°36'   190 / 201026.0 5.4 2.022.521.823.0
2016-Jun-22 21:33N 39°56' W 031°50'3316.7
2016-Jun-22 19:33N 39°53' W 031°07'1816.2
2016-Jun-22 18:28N 39°51' W 030°44'2216.0
2016-Jun-22 17:06N 39°49' W 030°15'916.4
2016-Jun-22 16:33N 39°48' W 030°04'1616.4
2016-Jun-22 15:33N 39°46' W 029°43'1615.9
2016-Jun-22 14:33N 39°43' W 029°22'1616.1
2016-Jun-22 13:34N 39°40' W 029°02'1616.1
2016-Jun-22 12:33N 39°36' W 028°42'1526.2
2016-Jun-22 12:00N 39°30' W 028°24'410.0 360 / 161029.010.8 2.023.018.519.0
2016-Jun-22 11:33N 39°34' W 028°21'1616.3
2016-Jun-22 10:33N 39°32' W 027°60'1817.7
2016-Jun-22 09:34N 39°29' W 027°37'1818.1
2016-Jun-22 08:33N 39°27' W 027°14'3618.2
2016-Jun-22 06:33N 39°22' W 026°27'1818.2
2016-Jun-22 05:33N 39°19' W 026°04'1818.4
2016-Jun-22 04:33N 39°17' W 025°40'1817.9
2016-Jun-22 03:34N 39°14' W 025°18'1818.0
2016-Jun-22 02:33N 39°11' W 024°55'1818.2
2016-Jun-22 01:33N 39°08' W 024°31'1918.7
2016-Jun-22 00:31N 39°05' W 024°07'1818.9
2016-Jun-21 23:33N 39°02' W 023°44'1918.8
2016-Jun-21 22:33N 38°58' W 023°20'32818.2
2016-Jun-21 04:33N 37°48' W 016°31'7518.5
2016-Jun-21 00:29N 37°29' W 014°59'2018.6
2016-Jun-20 23:26N 37°24' W 014°35'2218.4
2016-Jun-20 22:12N 37°17' W 014°08'1218.7
2016-Jun-20 21:33N 37°14' W 013°53'1818.6
2016-Jun-20 20:33N 37°09' W 013°31'1918.7
2016-Jun-20 19:33N 37°04' W 013°08'1918.9
2016-Jun-20 18:32N 36°58' W 012°46'1324.0
2016-Jun-20 18:00N 36°54' W 012°30'2416.9 050 / 181026.010.8 2.022.019.0
2016-Jun-20 16:33N 36°48' W 012°01'1918.9
2016-Jun-20 15:33N 36°42' W 011°38'1818.8
2016-Jun-20 14:34N 36°36' W 011°16'1818.4
2016-Jun-20 13:33N 36°31' W 010°54'1817.9
2016-Jun-20 12:33N 36°25' W 010°33'1832.6
2016-Jun-20 12:00N 36°18' W 010°12'2 3.9 050 / 191026.010.8 2.022.019.018.8
2016-Jun-20 11:33N 36°20' W 010°12'1817.8
2016-Jun-20 10:34N 36°14' W 009°51'1818.0
2016-Jun-20 09:33N 36°08' W 009°30'1817.9
2016-Jun-20 08:33N 36°03' W 009°09'1818.1
2016-Jun-20 07:33N 35°60' W 008°47'1918.5
2016-Jun-20 06:33N 35°60' W 008°24'2035.9
2016-Jun-20 06:00N 35°54' W 008°00'512.5 060 / 131023.010.8 1.021.019.5
2016-Jun-20 05:33N 35°59' W 008°01'1919.1
2016-Jun-20 04:33N 35°59' W 007°38'1919.1
2016-Jun-20 03:34N 35°58' W 007°14'1919.0
2016-Jun-20 02:33N 35°58' W 006°51'6019.0
2016-Jun-19 23:25N 35°58' W 005°37'1416.5
2016-Jun-19 22:33N 36°02' W 005°20'10717.7
2016-Jun-19 16:33N 36°19' W 003°10'1818.2
2016-Jun-19 15:34N 36°22' W 002°48'1918.6
2016-Jun-19 14:33N 36°25' W 002°25'1818.3
2016-Jun-19 13:33N 36°28' W 002°02'17316.8
2016-Jun-19 03:15N 36°53' E 001°32'1318.4
2016-Jun-19 02:33N 36°54' E 001°47'1818.2
2016-Jun-19 01:34N 36°57' E 002°10'1817.8
2016-Jun-19 00:33N 36°60' E 002°32'1817.9
2016-Jun-18 23:33N 37°01' E 002°54'27818.5
2016-Jun-18 08:33N 37°42' E 008°41'1818.3
2016-Jun-18 07:33N 37°43' E 009°03'2018.3
2016-Jun-18 06:26N 37°41' E 009°29'1618.4
2016-Jun-18 05:33N 37°40' E 009°50'1818.5
2016-Jun-18 04:33N 37°39' E 010°13'15818.8
2016-Jun-17 20:10N 36°47' E 013°21'1118.7
2016-Jun-17 19:33N 36°44' E 013°34'1818.4
2016-Jun-17 18:34N 36°39' E 013°56'1918.8
2016-Jun-17 17:33N 36°33' E 014°18'1919.3
2016-Jun-17 16:33N 36°27' E 014°41'  
2016-Jun-15 12:14N 30°55' E 032°19'  
Track history (hours):
 
Tides and Currents Weather Stations Pressure Air Temp Water Temp Dewpoint Dewpoint Depression Visibility Wind Speed Wind Dir Waves Ship Positions

OOCL Hamburg

Last reported at 2016-Jun-25 12:00 UTC. Time now 2016-Jun-26 02:53 UTC.
Position N 40°00' W 055°36'.

Length 323 m; beam 42.8 m; draft 14.5 m.

Type: Cargo ship. MMSI: 477702000.

Wind from 190 at 20 knots

Waves 2.0 meters (7 feet), 8 second period

Barometer 1026.0 mb
Air temperature 22.5 ° C
Visibility: greater than 5.4 NM
Dewpoint 21.8 ° C
Water temperature 23.0 ° C

Date/timePositionNaut miles runAvg speedWind from/ knotsBaromVisibWave heightAir tempDewpointWater temp
2016-Jun-25 12:00N 40°00' W 055°36'   190 / 201026.0 5.4 2.022.521.823.0
2016-Jun-22 21:33N 39°56' W 031°50'3316.7
2016-Jun-22 19:33N 39°53' W 031°07'1816.2
2016-Jun-22 18:28N 39°51' W 030°44'2216.0
2016-Jun-22 17:06N 39°49' W 030°15'916.4
2016-Jun-22 16:33N 39°48' W 030°04'1616.4
2016-Jun-22 15:33N 39°46' W 029°43'1615.9
2016-Jun-22 14:33N 39°43' W 029°22'1616.1
2016-Jun-22 13:34N 39°40' W 029°02'1616.1
2016-Jun-22 12:33N 39°36' W 028°42'1526.2
2016-Jun-22 12:00N 39°30' W 028°24'410.0 360 / 161029.010.8 2.023.018.519.0
2016-Jun-22 11:33N 39°34' W 028°21'1616.3
2016-Jun-22 10:33N 39°32' W 027°60'1817.7
2016-Jun-22 09:34N 39°29' W 027°37'1818.1
2016-Jun-22 08:33N 39°27' W 027°14'3618.2
2016-Jun-22 06:33N 39°22' W 026°27'1818.2
2016-Jun-22 05:33N 39°19' W 026°04'1818.4
2016-Jun-22 04:33N 39°17' W 025°40'1817.9
2016-Jun-22 03:34N 39°14' W 025°18'1818.0
2016-Jun-22 02:33N 39°11' W 024°55'1818.2
2016-Jun-22 01:33N 39°08' W 024°31'1918.7
2016-Jun-22 00:31N 39°05' W 024°07'1818.9
2016-Jun-21 23:33N 39°02' W 023°44'1918.8
2016-Jun-21 22:33N 38°58' W 023°20'32818.2
2016-Jun-21 04:33N 37°48' W 016°31'7518.5
2016-Jun-21 00:29N 37°29' W 014°59'2018.6
2016-Jun-20 23:26N 37°24' W 014°35'2218.4
2016-Jun-20 22:12N 37°17' W 014°08'1218.7
2016-Jun-20 21:33N 37°14' W 013°53'1818.6
2016-Jun-20 20:33N 37°09' W 013°31'1918.7
2016-Jun-20 19:33N 37°04' W 013°08'1918.9
2016-Jun-20 18:32N 36°58' W 012°46'1324.0
2016-Jun-20 18:00N 36°54' W 012°30'2416.9 050 / 181026.010.8 2.022.019.0
2016-Jun-20 16:33N 36°48' W 012°01'1918.9
2016-Jun-20 15:33N 36°42' W 011°38'1818.8
2016-Jun-20 14:34N 36°36' W 011°16'1818.4
2016-Jun-20 13:33N 36°31' W 010°54'1817.9
2016-Jun-20 12:33N 36°25' W 010°33'1832.6
2016-Jun-20 12:00N 36°18' W 010°12'2 3.9 050 / 191026.010.8 2.022.019.018.8
2016-Jun-20 11:33N 36°20' W 010°12'1817.8
2016-Jun-20 10:34N 36°14' W 009°51'1818.0
2016-Jun-20 09:33N 36°08' W 009°30'1817.9
2016-Jun-20 08:33N 36°03' W 009°09'1818.1
2016-Jun-20 07:33N 35°60' W 008°47'1918.5
2016-Jun-20 06:33N 35°60' W 008°24'2035.9
2016-Jun-20 06:00N 35°54' W 008°00'512.5 060 / 131023.010.8 1.021.019.5
2016-Jun-20 05:33N 35°59' W 008°01'1919.1
2016-Jun-20 04:33N 35°59' W 007°38'1919.1
2016-Jun-20 03:34N 35°58' W 007°14'1919.0
2016-Jun-20 02:33N 35°58' W 006°51'6019.0
2016-Jun-19 23:25N 35°58' W 005°37'1416.5
2016-Jun-19 22:33N 36°02' W 005°20'10717.7
2016-Jun-19 16:33N 36°19' W 003°10'1818.2
2016-Jun-19 15:34N 36°22' W 002°48'1918.6
2016-Jun-19 14:33N 36°25' W 002°25'1818.3
2016-Jun-19 13:33N 36°28' W 002°02'17316.8
2016-Jun-19 03:15N 36°53' E 001°32'1318.4
2016-Jun-19 02:33N 36°54' E 001°47'1818.2
2016-Jun-19 01:34N 36°57' E 002°10'1817.8
2016-Jun-19 00:33N 36°60' E 002°32'1817.9
2016-Jun-18 23:33N 37°01' E 002°54'27818.5
2016-Jun-18 08:33N 37°42' E 008°41'1818.3
2016-Jun-18 07:33N 37°43' E 009°03'2018.3
2016-Jun-18 06:26N 37°41' E 009°29'1618.4
2016-Jun-18 05:33N 37°40' E 009°50'1818.5
2016-Jun-18 04:33N 37°39' E 010°13'15818.8
2016-Jun-17 20:10N 36°47' E 013°21'1118.7
2016-Jun-17 19:33N 36°44' E 013°34'1818.4
2016-Jun-17 18:34N 36°39' E 013°56'1918.8
2016-Jun-17 17:33N 36°33' E 014°18'1919.3
2016-Jun-17 16:33N 36°27' E 014°41'  
2016-Jun-15 12:14N 30°55' E 032°19'  

Dump ship's entire track history